Historique des mesures à Cassis (13260), France
Quotidien Résumé Janvier 15, 2018 Unités:  US    Métrique   Métrique/US
« Précédent (Jour)
Suivant (Jour) »
Quotidien Hebdomadaire Mensuel Annuel Période au choix
  Maximum: Minimum: Moyenne:
Température: 32 °F 49.3 °F 51.6 °F
Point de rosée: 32 °F 41 °F 43.2 °F
Humidité: Humidity % 67 % 68 %
Vitesse du vent: WindSpeedKMH mph 0.0 mph 0.4 mph
Rafales: WindSpeedGustKMH mph - -
Vent:- - SE
Pression: 0 in 30 in -
Précipitations: 0 in    
Historical Graphs
 
 
Mesures pour : Janvier 15, 2018
Heure Temperature Point de rosée Pression Vent Vitesse du vent Rafales Humidité Pluie (par heure) Conditions
32 °F 32 °F 0 in Calm     Humidity % 0 in SoftwareType W/m2
01:12 50.7 °F 41.7 °F 30 in Calm     71 % 0 in open2300-1.11 W/m2
02:12 50.7 °F 42.1 °F 30.1 in Calm   2.6 mph 72 % 0 in open2300-1.11 W/m2
03:12 51.1 °F 42.1 °F 30 in Calm     71 % 0 in open2300-1.11 W/m2
04:12 50.5 °F 41.5 °F 30 in Calm     71 % 0 in open2300-1.11 W/m2
05:12 49.3 °F 41 °F 30 in NW 2.6 mph 2.6 mph 73 % 0 in open2300-1.11 W/m2
06:12 49.6 °F 41.4 °F 30 in Calm   5.0 mph 73 % 0 in open2300-1.11 W/m2
08:12 50.5 °F 41.9 °F 30.1 in Calm     72 % 0 in open2300-1.11 W/m2
09:12 50.5 °F 41.9 °F 30.1 in North 2.1 mph 2.1 mph 72 % 0 in open2300-1.11 W/m2
10:12 51.3 °F 42.6 °F 30.1 in Calm     72 % 0 in open2300-1.11 W/m2
11:12 52.9 °F 43.9 °F 30.1 in Calm     71 % 0 in open2300-1.11 W/m2
12:12 54.7 °F 44.8 °F 30.1 in Calm   2.1 mph 69 % 0 in open2300-1.11 W/m2
13:12 55.6 °F 45.1 °F 30.1 in Calm   1.8 mph 68 % 0 in open2300-1.11 W/m2
14:12 56.5 °F 46.4 °F 30 in Calm   5.0 mph 69 % 0 in open2300-1.11 W/m2
15:12 57.4 °F 46.6 °F 30.1 in East 1.4 mph 4.7 mph 67 % 0 in open2300-1.11 W/m2
16:12 56.5 °F 46.4 °F 30.1 in SSE 2.1 mph 2.1 mph 69 % 0 in open2300-1.11 W/m2
17:12 55 °F 45.9 °F 30 in Calm     71 % 0 in open2300-1.11 W/m2
19:12 53.4 °F 45.7 °F 30 in Calm     75 % 0 in open2300-1.11 W/m2
21:12 52.5 °F 45.1 °F 30 in Calm   6.4 mph 76 % 0 in open2300-1.11 W/m2
22:12 52.3 °F 45 °F 30 in Calm     76 % 0 in open2300-1.11 W/m2
23:12 51.8 °F 44.4 °F 30 in Calm     76 % 0 in open2300-1.11 W/m2
Observations météo à CASSIS
WU-History script by Weather Underground - 1 mb